Summit, Arkansas
Current Conditions -  °F | °C
As of 11:55 AM on Monday 24 Nov 2014 (Local Time) from KFLP Reporting Station
Clear Clear  
Wind Chill: 52°   Ceiling: Unl
Heat Index: 52°   Visibility: 10mi
Dew Point: 28°   Wind: 14mph
Humidity: 41%   Direction: 280°W
Pressure: 29.83"   Gusts: 22mph
Location:  36.25°N, 92.69°W
Report Text: KFLP 241755Z AUTO 28012G19KT 10SM CLR 11/M02 A2983 RMK AO1 10110 20050 52010
Loading
Personal Weather Stations






























Interactive Weather Map New forecast layout! Learn more

10-Day Weather Forecast

Advertisements
Track Severe Weather on mobile